sensor_id;sensor_type;location;lat;lon;timestamp;P1;durP1;ratioP1;P2;durP2;ratioP2
19195;SDS011;9730;48.926;11.376;2022-07-01T00:01:37;8.63;;;4.38;;
19195;SDS011;9730;48.926;11.376;2022-07-01T00:04:05;5.25;;;3.35;;
19195;SDS011;9730;48.926;11.376;2022-07-01T00:06:32;10.93;;;4.00;;
19195;SDS011;9730;48.926;11.376;2022-07-01T00:08:59;7.72;;;3.70;;
19195;SDS011;9730;48.926;11.376;2022-07-01T00:11:27;6.43;;;3.45;;
19195;SDS011;9730;48.926;11.376;2022-07-01T00:13:53;8.27;;;4.47;;
19195;SDS011;9730;48.926;11.376;2022-07-01T00:16:20;4.35;;;2.75;;
19195;SDS011;9730;48.926;11.376;2022-07-01T00:18:46;3.80;;;3.00;;
19195;SDS011;9730;48.926;11.376;2022-07-01T00:21:13;6.10;;;3.10;;
19195;SDS011;9730;48.926;11.376;2022-07-01T00:23:39;3.72;;;2.95;;
19195;SDS011;9730;48.926;11.376;2022-07-01T00:26:07;3.65;;;2.50;;
19195;SDS011;9730;48.926;11.376;2022-07-01T00:28:35;6.18;;;2.40;;
19195;SDS011;9730;48.926;11.376;2022-07-01T00:31:02;4.53;;;2.40;;
19195;SDS011;9730;48.926;11.376;2022-07-01T00:33:28;4.05;;;2.22;;
19195;SDS011;9730;48.926;11.376;2022-07-01T00:35:55;5.60;;;2.58;;
19195;SDS011;9730;48.926;11.376;2022-07-01T00:38:22;5.30;;;2.78;;
19195;SDS011;9730;48.926;11.376;2022-07-01T00:40:51;4.80;;;2.80;;
19195;SDS011;9730;48.926;11.376;2022-07-01T00:43:17;3.55;;;2.78;;
19195;SDS011;9730;48.926;11.376;2022-07-01T00:45:49;5.22;;;2.63;;
19195;SDS011;9730;48.926;11.376;2022-07-01T00:48:16;7.60;;;2.83;;
19195;SDS011;9730;48.926;11.376;2022-07-01T00:50:44;5.88;;;2.83;;
19195;SDS011;9730;48.926;11.376;2022-07-01T00:53:11;5.47;;;3.20;;
19195;SDS011;9730;48.926;11.376;2022-07-01T00:55:38;7.50;;;2.97;;
19195;SDS011;9730;48.926;11.376;2022-07-01T00:58:05;3.67;;;2.88;;
19195;SDS011;9730;48.926;11.376;2022-07-01T01:00:32;4.68;;;2.72;;
19195;SDS011;9730;48.926;11.376;2022-07-01T01:02:59;6.43;;;2.70;;
19195;SDS011;9730;48.926;11.376;2022-07-01T01:05:26;3.55;;;2.78;;
19195;SDS011;9730;48.926;11.376;2022-07-01T01:07:53;5.25;;;2.50;;
19195;SDS011;9730;48.926;11.376;2022-07-01T01:10:20;3.70;;;2.53;;
19195;SDS011;9730;48.926;11.376;2022-07-01T01:15:17;5.15;;;2.53;;
19195;SDS011;9730;48.926;11.376;2022-07-01T01:17:43;2.75;;;2.33;;
19195;SDS011;9730;48.926;11.376;2022-07-01T01:20:14;4.95;;;2.80;;
19195;SDS011;9730;48.926;11.376;2022-07-01T01:22:42;4.53;;;2.95;;
19195;SDS011;9730;48.926;11.376;2022-07-01T01:25:09;4.18;;;2.75;;
19195;SDS011;9730;48.926;11.376;2022-07-01T01:27:36;2.92;;;2.53;;
19195;SDS011;9730;48.926;11.376;2022-07-01T01:30:03;4.70;;;2.80;;
19195;SDS011;9730;48.926;11.376;2022-07-01T01:32:30;5.80;;;2.60;;
19195;SDS011;9730;48.926;11.376;2022-07-01T01:34:57;3.92;;;2.47;;
19195;SDS011;9730;48.926;11.376;2022-07-01T01:37:23;10.93;;;2.63;;
19195;SDS011;9730;48.926;11.376;2022-07-01T01:39:51;2.67;;;2.20;;
19195;SDS011;9730;48.926;11.376;2022-07-01T01:42:18;3.10;;;2.17;;
19195;SDS011;9730;48.926;11.376;2022-07-01T01:44:44;5.57;;;2.65;;
19195;SDS011;9730;48.926;11.376;2022-07-01T01:47:11;3.70;;;2.30;;
19195;SDS011;9730;48.926;11.376;2022-07-01T01:49:37;6.70;;;2.10;;
19195;SDS011;9730;48.926;11.376;2022-07-01T01:52:04;3.08;;;1.95;;
19195;SDS011;9730;48.926;11.376;2022-07-01T01:54:31;3.88;;;2.08;;
19195;SDS011;9730;48.926;11.376;2022-07-01T01:56:59;2.03;;;1.77;;
19195;SDS011;9730;48.926;11.376;2022-07-01T01:59:26;3.33;;;2.13;;
19195;SDS011;9730;48.926;11.376;2022-07-01T02:01:53;2.50;;;2.10;;
19195;SDS011;9730;48.926;11.376;2022-07-01T02:04:19;4.63;;;2.00;;
19195;SDS011;9730;48.926;11.376;2022-07-01T02:06:48;2.00;;;1.80;;
19195;SDS011;9730;48.926;11.376;2022-07-01T02:09:15;4.72;;;1.85;;
19195;SDS011;9730;48.926;11.376;2022-07-01T02:11:41;4.22;;;1.50;;
19195;SDS011;9730;48.926;11.376;2022-07-01T02:14:09;4.45;;;1.92;;
19195;SDS011;9730;48.926;11.376;2022-07-01T02:16:36;2.30;;;1.80;;
19195;SDS011;9730;48.926;11.376;2022-07-01T02:19:02;3.03;;;1.90;;
19195;SDS011;9730;48.926;11.376;2022-07-01T02:21:29;5.38;;;2.10;;
19195;SDS011;9730;48.926;11.376;2022-07-01T02:23:56;2.72;;;2.03;;
19195;SDS011;9730;48.926;11.376;2022-07-01T02:26:22;2.20;;;2.00;;
19195;SDS011;9730;48.926;11.376;2022-07-01T02:28:49;2.75;;;2.25;;
19195;SDS011;9730;48.926;11.376;2022-07-01T02:31:17;1.88;;;1.77;;
19195;SDS011;9730;48.926;11.376;2022-07-01T02:33:43;3.97;;;1.67;;
19195;SDS011;9730;48.926;11.376;2022-07-01T02:36:10;4.43;;;2.10;;
19195;SDS011;9730;48.926;11.376;2022-07-01T02:38:36;3.72;;;2.28;;
19195;SDS011;9730;48.926;11.376;2022-07-01T02:41:03;3.65;;;2.35;;
19195;SDS011;9730;48.926;11.376;2022-07-01T02:43:29;4.32;;;1.95;;
19195;SDS011;9730;48.926;11.376;2022-07-01T02:45:56;3.63;;;1.85;;
19195;SDS011;9730;48.926;11.376;2022-07-01T02:48:24;3.38;;;1.70;;
19195;SDS011;9730;48.926;11.376;2022-07-01T02:50:50;2.47;;;1.97;;
19195;SDS011;9730;48.926;11.376;2022-07-01T02:53:17;1.80;;;1.58;;
19195;SDS011;9730;48.926;11.376;2022-07-01T02:55:43;3.97;;;1.88;;
19195;SDS011;9730;48.926;11.376;2022-07-01T02:58:10;2.63;;;1.88;;
19195;SDS011;9730;48.926;11.376;2022-07-01T03:00:36;2.33;;;1.65;;
19195;SDS011;9730;48.926;11.376;2022-07-01T03:03:03;2.13;;;1.88;;
19195;SDS011;9730;48.926;11.376;2022-07-01T03:05:31;2.75;;;1.50;;
19195;SDS011;9730;48.926;11.376;2022-07-01T03:07:57;2.93;;;1.70;;
19195;SDS011;9730;48.926;11.376;2022-07-01T03:10:24;4.32;;;1.40;;
19195;SDS011;9730;48.926;11.376;2022-07-01T03:12:50;2.00;;;1.55;;
19195;SDS011;9730;48.926;11.376;2022-07-01T03:15:17;3.67;;;1.67;;
19195;SDS011;9730;48.926;11.376;2022-07-01T03:17:44;2.30;;;1.80;;
19195;SDS011;9730;48.926;11.376;2022-07-01T03:22:42;2.53;;;1.95;;
19195;SDS011;9730;48.926;11.376;2022-07-01T03:25:09;3.30;;;1.50;;
19195;SDS011;9730;48.926;11.376;2022-07-01T03:27:36;2.08;;;1.75;;
19195;SDS011;9730;48.926;11.376;2022-07-01T03:30:03;1.83;;;1.50;;
19195;SDS011;9730;48.926;11.376;2022-07-01T03:32:31;3.50;;;1.85;;
19195;SDS011;9730;48.926;11.376;2022-07-01T03:34:59;2.33;;;1.90;;
19195;SDS011;9730;48.926;11.376;2022-07-01T03:37:25;4.75;;;1.85;;
19195;SDS011;9730;48.926;11.376;2022-07-01T03:39:53;1.55;;;1.40;;
19195;SDS011;9730;48.926;11.376;2022-07-01T03:42:19;3.97;;;1.73;;
19195;SDS011;9730;48.926;11.376;2022-07-01T03:44:46;2.72;;;1.55;;
19195;SDS011;9730;48.926;11.376;2022-07-01T03:47:12;2.42;;;1.70;;
19195;SDS011;9730;48.926;11.376;2022-07-01T03:49:39;12.30;;;1.50;;
19195;SDS011;9730;48.926;11.376;2022-07-01T03:52:06;1.92;;;1.30;;
19195;SDS011;9730;48.926;11.376;2022-07-01T03:54:32;2.03;;;1.35;;
19195;SDS011;9730;48.926;11.376;2022-07-01T03:57:04;2.28;;;1.20;;
19195;SDS011;9730;48.926;11.376;2022-07-01T03:59:32;1.35;;;1.20;;
19195;SDS011;9730;48.926;11.376;2022-07-01T04:02:01;1.40;;;1.30;;
19195;SDS011;9730;48.926;11.376;2022-07-01T04:04:27;1.50;;;1.40;;
19195;SDS011;9730;48.926;11.376;2022-07-01T04:06:54;1.17;;;1.08;;
19195;SDS011;9730;48.926;11.376;2022-07-01T04:11:50;1.88;;;1.10;;
19195;SDS011;9730;48.926;11.376;2022-07-01T04:14:18;2.15;;;1.35;;
19195;SDS011;9730;48.926;11.376;2022-07-01T04:16:45;1.30;;;1.20;;
19195;SDS011;9730;48.926;11.376;2022-07-01T04:19:12;1.95;;;1.15;;
19195;SDS011;9730;48.926;11.376;2022-07-01T04:21:40;1.33;;;1.10;;
19195;SDS011;9730;48.926;11.376;2022-07-01T04:24:24;1.30;;;1.20;;
19195;SDS011;9730;48.926;11.376;2022-07-01T04:26:52;1.33;;;1.23;;
19195;SDS011;9730;48.926;11.376;2022-07-01T04:29:20;1.17;;;1.05;;
19195;SDS011;9730;48.926;11.376;2022-07-01T04:31:47;2.40;;;1.50;;
19195;SDS011;9730;48.926;11.376;2022-07-01T04:34:13;1.90;;;1.52;;
19195;SDS011;9730;48.926;11.376;2022-07-01T04:36:40;1.55;;;1.30;;
19195;SDS011;9730;48.926;11.376;2022-07-01T04:39:06;2.50;;;1.70;;
19195;SDS011;9730;48.926;11.376;2022-07-01T04:41:33;1.90;;;1.60;;
19195;SDS011;9730;48.926;11.376;2022-07-01T04:44:17;2.60;;;1.13;;
19195;SDS011;9730;48.926;11.376;2022-07-01T04:46:45;5.38;;;1.38;;
19195;SDS011;9730;48.926;11.376;2022-07-01T04:49:12;1.60;;;1.40;;
19195;SDS011;9730;48.926;11.376;2022-07-01T04:51:38;5.75;;;2.00;;
19195;SDS011;9730;48.926;11.376;2022-07-01T04:54:05;1.00;;;0.90;;
19195;SDS011;9730;48.926;11.376;2022-07-01T04:56:33;1.38;;;1.25;;
19195;SDS011;9730;48.926;11.376;2022-07-01T04:59:01;1.30;;;1.20;;
19195;SDS011;9730;48.926;11.376;2022-07-01T05:01:27;1.60;;;1.08;;
19195;SDS011;9730;48.926;11.376;2022-07-01T05:03:56;2.03;;;1.35;;
19195;SDS011;9730;48.926;11.376;2022-07-01T05:06:23;1.88;;;1.40;;
19195;SDS011;9730;48.926;11.376;2022-07-01T05:08:50;2.38;;;1.60;;
19195;SDS011;9730;48.926;11.376;2022-07-01T05:11:16;1.20;;;1.10;;
19195;SDS011;9730;48.926;11.376;2022-07-01T05:13:43;1.67;;;1.17;;
19195;SDS011;9730;48.926;11.376;2022-07-01T05:16:09;1.33;;;1.15;;
19195;SDS011;9730;48.926;11.376;2022-07-01T05:18:36;1.75;;;1.08;;
19195;SDS011;9730;48.926;11.376;2022-07-01T05:21:18;2.40;;;1.10;;
19195;SDS011;9730;48.926;11.376;2022-07-01T05:24:03;0.88;;;0.88;;
19195;SDS011;9730;48.926;11.376;2022-07-01T05:26:30;2.15;;;1.20;;
19195;SDS011;9730;48.926;11.376;2022-07-01T05:28:56;4.05;;;1.70;;
19195;SDS011;9730;48.926;11.376;2022-07-01T05:31:23;2.20;;;1.55;;
19195;SDS011;9730;48.926;11.376;2022-07-01T05:33:50;2.58;;;1.70;;
19195;SDS011;9730;48.926;11.376;2022-07-01T05:36:16;1.45;;;1.35;;
19195;SDS011;9730;48.926;11.376;2022-07-01T05:38:44;3.20;;;1.85;;
19195;SDS011;9730;48.926;11.376;2022-07-01T05:41:12;2.85;;;1.45;;
19195;SDS011;9730;48.926;11.376;2022-07-01T05:43:38;3.95;;;1.70;;
19195;SDS011;9730;48.926;11.376;2022-07-01T05:46:05;2.40;;;1.55;;
19195;SDS011;9730;48.926;11.376;2022-07-01T05:48:31;1.92;;;1.60;;
19195;SDS011;9730;48.926;11.376;2022-07-01T05:50:58;2.63;;;2.40;;
19195;SDS011;9730;48.926;11.376;2022-07-01T05:53:25;4.13;;;2.53;;
19195;SDS011;9730;48.926;11.376;2022-07-01T05:55:52;2.63;;;1.80;;
19195;SDS011;9730;48.926;11.376;2022-07-01T05:58:19;3.70;;;1.92;;
19195;SDS011;9730;48.926;11.376;2022-07-01T06:00:45;2.08;;;1.70;;
19195;SDS011;9730;48.926;11.376;2022-07-01T06:03:13;3.08;;;2.30;;
19195;SDS011;9730;48.926;11.376;2022-07-01T06:05:40;1.90;;;1.75;;
19195;SDS011;9730;48.926;11.376;2022-07-01T06:08:07;1.27;;;1.00;;
19195;SDS011;9730;48.926;11.376;2022-07-01T06:10:35;1.25;;;1.00;;
19195;SDS011;9730;48.926;11.376;2022-07-01T06:13:03;1.15;;;0.90;;
19195;SDS011;9730;48.926;11.376;2022-07-01T06:15:30;1.38;;;0.80;;
19195;SDS011;9730;48.926;11.376;2022-07-01T06:17:56;1.13;;;0.80;;
19195;SDS011;9730;48.926;11.376;2022-07-01T06:20:23;1.02;;;0.70;;
19195;SDS011;9730;48.926;11.376;2022-07-01T06:22:49;2.50;;;0.70;;
19195;SDS011;9730;48.926;11.376;2022-07-01T06:25:16;2.25;;;1.02;;
19195;SDS011;9730;48.926;11.376;2022-07-01T06:27:44;1.35;;;0.95;;
19195;SDS011;9730;48.926;11.376;2022-07-01T06:30:12;0.95;;;0.95;;
19195;SDS011;9730;48.926;11.376;2022-07-01T06:32:39;1.75;;;0.80;;
19195;SDS011;9730;48.926;11.376;2022-07-01T06:35:06;1.88;;;0.93;;
19195;SDS011;9730;48.926;11.376;2022-07-01T06:37:33;1.15;;;0.70;;
19195;SDS011;9730;48.926;11.376;2022-07-01T06:40:01;1.02;;;0.70;;
19195;SDS011;9730;48.926;11.376;2022-07-01T06:42:28;1.15;;;0.70;;
19195;SDS011;9730;48.926;11.376;2022-07-01T06:44:55;0.50;;;0.50;;
19195;SDS011;9730;48.926;11.376;2022-07-01T06:47:23;1.00;;;0.70;;
19195;SDS011;9730;48.926;11.376;2022-07-01T06:49:49;0.88;;;0.50;;
19195;SDS011;9730;48.926;11.376;2022-07-01T06:52:16;6.70;;;1.00;;
19195;SDS011;9730;48.926;11.376;2022-07-01T06:54:43;2.17;;;0.70;;
19195;SDS011;9730;48.926;11.376;2022-07-01T06:57:09;4.68;;;0.70;;
19195;SDS011;9730;48.926;11.376;2022-07-01T06:59:36;1.15;;;0.63;;
19195;SDS011;9730;48.926;11.376;2022-07-01T07:02:03;0.95;;;0.70;;
19195;SDS011;9730;48.926;11.376;2022-07-01T07:04:33;2.13;;;0.52;;
19195;SDS011;9730;48.926;11.376;2022-07-01T07:07:00;0.73;;;0.68;;
19195;SDS011;9730;48.926;11.376;2022-07-01T07:09:27;0.40;;;0.40;;
19195;SDS011;9730;48.926;11.376;2022-07-01T07:11:53;1.17;;;0.75;;
19195;SDS011;9730;48.926;11.376;2022-07-01T07:14:20;0.88;;;0.57;;
19195;SDS011;9730;48.926;11.376;2022-07-01T07:16:47;4.28;;;0.60;;
19195;SDS011;9730;48.926;11.376;2022-07-01T07:19:16;0.50;;;0.47;;
19195;SDS011;9730;48.926;11.376;2022-07-01T07:21:44;0.68;;;0.60;;
19195;SDS011;9730;48.926;11.376;2022-07-01T07:24:10;0.60;;;0.60;;
19195;SDS011;9730;48.926;11.376;2022-07-01T07:26:37;0.77;;;0.63;;
19195;SDS011;9730;48.926;11.376;2022-07-01T07:29:03;0.55;;;0.40;;
19195;SDS011;9730;48.926;11.376;2022-07-01T07:31:30;2.17;;;0.60;;
19195;SDS011;9730;48.926;11.376;2022-07-01T07:33:56;0.40;;;0.40;;
19195;SDS011;9730;48.926;11.376;2022-07-01T07:36:23;1.95;;;0.63;;
19195;SDS011;9730;48.926;11.376;2022-07-01T07:38:50;0.77;;;0.60;;
19195;SDS011;9730;48.926;11.376;2022-07-01T07:41:17;2.38;;;0.60;;
19195;SDS011;9730;48.926;11.376;2022-07-01T07:43:43;0.40;;;0.40;;
19195;SDS011;9730;48.926;11.376;2022-07-01T07:46:10;2.92;;;0.70;;
19195;SDS011;9730;48.926;11.376;2022-07-01T07:48:37;0.65;;;0.65;;
19195;SDS011;9730;48.926;11.376;2022-07-01T07:51:04;0.65;;;0.65;;
19195;SDS011;9730;48.926;11.376;2022-07-01T07:53:30;0.93;;;0.80;;
19195;SDS011;9730;48.926;11.376;2022-07-01T07:55:58;0.80;;;0.80;;
19195;SDS011;9730;48.926;11.376;2022-07-01T07:58:25;2.80;;;0.73;;
19195;SDS011;9730;48.926;11.376;2022-07-01T08:00:52;0.82;;;0.80;;
19195;SDS011;9730;48.926;11.376;2022-07-01T08:03:18;0.70;;;0.70;;
19195;SDS011;9730;48.926;11.376;2022-07-01T08:05:45;1.20;;;0.93;;
19195;SDS011;9730;48.926;11.376;2022-07-01T08:08:11;1.33;;;1.05;;
19195;SDS011;9730;48.926;11.376;2022-07-01T08:10:37;0.98;;;0.98;;
19195;SDS011;9730;48.926;11.376;2022-07-01T08:13:05;3.22;;;1.00;;
19195;SDS011;9730;48.926;11.376;2022-07-01T08:15:32;1.27;;;1.17;;
19195;SDS011;9730;48.926;11.376;2022-07-01T08:17:59;1.15;;;1.05;;
19195;SDS011;9730;48.926;11.376;2022-07-01T08:20:25;1.23;;;1.13;;
19195;SDS011;9730;48.926;11.376;2022-07-01T08:22:52;3.83;;;1.38;;
19195;SDS011;9730;48.926;11.376;2022-07-01T08:25:18;1.10;;;1.10;;
19195;SDS011;9730;48.926;11.376;2022-07-01T08:27:45;1.40;;;1.30;;
19195;SDS011;9730;48.926;11.376;2022-07-01T08:30:13;2.28;;;1.70;;
19195;SDS011;9730;48.926;11.376;2022-07-01T08:32:39;2.22;;;1.30;;
19195;SDS011;9730;48.926;11.376;2022-07-01T08:35:06;2.08;;;1.25;;
19195;SDS011;9730;48.926;11.376;2022-07-01T08:37:34;3.50;;;1.40;;
19195;SDS011;9730;48.926;11.376;2022-07-01T08:40:00;2.05;;;1.63;;
19195;SDS011;9730;48.926;11.376;2022-07-01T08:42:27;3.80;;;1.67;;
19195;SDS011;9730;48.926;11.376;2022-07-01T08:44:54;1.83;;;1.60;;
19195;SDS011;9730;48.926;11.376;2022-07-01T08:47:22;2.80;;;1.48;;
19195;SDS011;9730;48.926;11.376;2022-07-01T08:49:48;1.38;;;1.27;;
19195;SDS011;9730;48.926;11.376;2022-07-01T08:52:15;4.53;;;2.00;;
19195;SDS011;9730;48.926;11.376;2022-07-01T08:54:41;1.85;;;1.65;;
19195;SDS011;9730;48.926;11.376;2022-07-01T08:57:08;2.22;;;1.65;;
19195;SDS011;9730;48.926;11.376;2022-07-01T08:59:34;2.97;;;1.92;;
19195;SDS011;9730;48.926;11.376;2022-07-01T09:02:02;2.97;;;1.50;;
19195;SDS011;9730;48.926;11.376;2022-07-01T09:04:31;2.13;;;1.70;;
19195;SDS011;9730;48.926;11.376;2022-07-01T09:07:01;1.73;;;1.63;;
19195;SDS011;9730;48.926;11.376;2022-07-01T09:09:32;3.28;;;1.52;;
19195;SDS011;9730;48.926;11.376;2022-07-01T09:12:00;2.95;;;1.40;;
19195;SDS011;9730;48.926;11.376;2022-07-01T09:14:27;2.25;;;1.98;;
19195;SDS011;9730;48.926;11.376;2022-07-01T09:16:55;1.85;;;1.75;;
19195;SDS011;9730;48.926;11.376;2022-07-01T09:19:24;2.05;;;1.67;;
19195;SDS011;9730;48.926;11.376;2022-07-01T09:21:54;4.82;;;1.65;;
19195;SDS011;9730;48.926;11.376;2022-07-01T09:24:26;2.38;;;2.03;;
19195;SDS011;9730;48.926;11.376;2022-07-01T09:26:55;2.75;;;1.70;;
19195;SDS011;9730;48.926;11.376;2022-07-01T09:29:27;4.53;;;1.70;;
19195;SDS011;9730;48.926;11.376;2022-07-01T09:31:57;1.30;;;1.20;;
19195;SDS011;9730;48.926;11.376;2022-07-01T09:34:23;5.82;;;1.55;;
19195;SDS011;9730;48.926;11.376;2022-07-01T09:36:55;1.42;;;1.33;;
19195;SDS011;9730;48.926;11.376;2022-07-01T09:39:23;2.28;;;1.45;;
19195;SDS011;9730;48.926;11.376;2022-07-01T09:41:50;1.30;;;1.13;;
19195;SDS011;9730;48.926;11.376;2022-07-01T09:44:20;12.15;;;1.50;;
19195;SDS011;9730;48.926;11.376;2022-07-01T09:46:53;1.77;;;1.42;;
19195;SDS011;9730;48.926;11.376;2022-07-01T09:49:21;3.60;;;1.35;;
19195;SDS011;9730;48.926;11.376;2022-07-01T09:51:48;2.60;;;1.17;;
19195;SDS011;9730;48.926;11.376;2022-07-01T09:54:16;3.20;;;1.50;;
19195;SDS011;9730;48.926;11.376;2022-07-01T09:56:43;2.55;;;1.25;;
19195;SDS011;9730;48.926;11.376;2022-07-01T09:59:10;3.22;;;1.50;;
19195;SDS011;9730;48.926;11.376;2022-07-01T10:01:38;3.72;;;1.35;;
19195;SDS011;9730;48.926;11.376;2022-07-01T10:04:06;1.23;;;1.15;;
19195;SDS011;9730;48.926;11.376;2022-07-01T10:06:42;1.08;;;1.08;;
19195;SDS011;9730;48.926;11.376;2022-07-01T10:09:33;1.38;;;1.27;;
19195;SDS011;9730;48.926;11.376;2022-07-01T10:15:08;1.40;;;1.30;;
19195;SDS011;9730;48.926;11.376;2022-07-01T10:17:36;2.25;;;1.40;;
19195;SDS011;9730;48.926;11.376;2022-07-01T10:20:07;1.98;;;1.33;;
19195;SDS011;9730;48.926;11.376;2022-07-01T10:22:36;2.78;;;1.17;;
19195;SDS011;9730;48.926;11.376;2022-07-01T10:28:13;3.38;;;1.15;;
19195;SDS011;9730;48.926;11.376;2022-07-01T10:30:55;1.20;;;1.10;;
19195;SDS011;9730;48.926;11.376;2022-07-01T10:36:13;1.90;;;0.95;;
19195;SDS011;9730;48.926;11.376;2022-07-01T10:41:36;2.75;;;1.00;;
19195;SDS011;9730;48.926;11.376;2022-07-01T10:44:04;2.20;;;1.10;;
19195;SDS011;9730;48.926;11.376;2022-07-01T10:46:39;0.90;;;0.90;;
19195;SDS011;9730;48.926;11.376;2022-07-01T10:49:09;1.10;;;1.00;;
19195;SDS011;9730;48.926;11.376;2022-07-01T10:51:46;3.25;;;1.02;;
19195;SDS011;9730;48.926;11.376;2022-07-01T11:00:25;1.15;;;1.10;;
19195;SDS011;9730;48.926;11.376;2022-07-01T11:03:10;1.65;;;1.50;;
19195;SDS011;9730;48.926;11.376;2022-07-01T11:05:41;3.50;;;1.30;;
19195;SDS011;9730;48.926;11.376;2022-07-01T11:08:09;2.63;;;1.80;;
19195;SDS011;9730;48.926;11.376;2022-07-01T11:10:37;5.05;;;1.25;;
19195;SDS011;9730;48.926;11.376;2022-07-01T11:13:05;1.67;;;1.27;;
19195;SDS011;9730;48.926;11.376;2022-07-01T11:15:32;1.50;;;1.40;;
19195;SDS011;9730;48.926;11.376;2022-07-01T11:17:59;1.20;;;1.10;;
19195;SDS011;9730;48.926;11.376;2022-07-01T11:20:28;1.20;;;1.10;;
19195;SDS011;9730;48.926;11.376;2022-07-01T11:22:56;6.40;;;1.10;;
19195;SDS011;9730;48.926;11.376;2022-07-01T11:25:22;1.30;;;1.20;;
19195;SDS011;9730;48.926;11.376;2022-07-01T11:27:50;2.08;;;1.08;;
19195;SDS011;9730;48.926;11.376;2022-07-01T11:30:19;1.27;;;1.00;;
19195;SDS011;9730;48.926;11.376;2022-07-01T11:32:47;1.77;;;1.60;;
19195;SDS011;9730;48.926;11.376;2022-07-01T11:35:16;3.20;;;1.80;;
19195;SDS011;9730;48.926;11.376;2022-07-01T11:38:05;3.17;;;1.50;;
19195;SDS011;9730;48.926;11.376;2022-07-01T11:40:50;1.63;;;1.52;;
19195;SDS011;9730;48.926;11.376;2022-07-01T11:43:18;1.88;;;1.45;;
19195;SDS011;9730;48.926;11.376;2022-07-01T11:45:47;1.85;;;1.20;;
19195;SDS011;9730;48.926;11.376;2022-07-01T11:48:27;2.97;;;1.38;;
19195;SDS011;9730;48.926;11.376;2022-07-01T11:50:55;1.88;;;1.60;;
19195;SDS011;9730;48.926;11.376;2022-07-01T11:53:21;1.63;;;1.52;;
19195;SDS011;9730;48.926;11.376;2022-07-01T11:55:48;2.88;;;1.52;;
19195;SDS011;9730;48.926;11.376;2022-07-01T11:58:14;2.80;;;2.03;;
19195;SDS011;9730;48.926;11.376;2022-07-01T12:00:41;2.42;;;1.95;;
19195;SDS011;9730;48.926;11.376;2022-07-01T12:03:09;5.72;;;2.25;;
19195;SDS011;9730;48.926;11.376;2022-07-01T12:05:36;1.88;;;1.60;;
19195;SDS011;9730;48.926;11.376;2022-07-01T12:08:03;2.25;;;1.70;;
19195;SDS011;9730;48.926;11.376;2022-07-01T12:10:30;1.90;;;1.77;;
19195;SDS011;9730;48.926;11.376;2022-07-01T12:12:57;5.68;;;2.38;;
19195;SDS011;9730;48.926;11.376;2022-07-01T12:15:23;2.20;;;2.00;;
19195;SDS011;9730;48.926;11.376;2022-07-01T12:17:50;1.85;;;1.67;;
19195;SDS011;9730;48.926;11.376;2022-07-01T12:20:32;1.92;;;1.80;;
19195;SDS011;9730;48.926;11.376;2022-07-01T12:23:10;2.42;;;2.22;;
19195;SDS011;9730;48.926;11.376;2022-07-01T12:25:37;2.53;;;2.33;;
19195;SDS011;9730;48.926;11.376;2022-07-01T12:28:04;4.97;;;2.13;;
19195;SDS011;9730;48.926;11.376;2022-07-01T12:30:30;2.67;;;2.08;;
19195;SDS011;9730;48.926;11.376;2022-07-01T12:32:58;2.30;;;2.10;;
19195;SDS011;9730;48.926;11.376;2022-07-01T12:35:36;2.85;;;2.00;;
19195;SDS011;9730;48.926;11.376;2022-07-01T12:38:14;5.82;;;2.10;;
19195;SDS011;9730;48.926;11.376;2022-07-01T12:40:41;1.48;;;1.38;;
19195;SDS011;9730;48.926;11.376;2022-07-01T12:43:21;1.60;;;1.40;;
19195;SDS011;9730;48.926;11.376;2022-07-01T12:45:48;7.05;;;1.73;;
19195;SDS011;9730;48.926;11.376;2022-07-01T12:48:15;2.40;;;1.42;;
19195;SDS011;9730;48.926;11.376;2022-07-01T12:50:43;1.88;;;1.27;;
19195;SDS011;9730;48.926;11.376;2022-07-01T12:53:11;2.92;;;1.75;;
19195;SDS011;9730;48.926;11.376;2022-07-01T12:55:43;4.40;;;1.85;;
19195;SDS011;9730;48.926;11.376;2022-07-01T12:58:11;1.93;;;1.73;;
19195;SDS011;9730;48.926;11.376;2022-07-01T13:00:39;2.78;;;1.92;;
19195;SDS011;9730;48.926;11.376;2022-07-01T13:03:08;4.78;;;2.30;;
19195;SDS011;9730;48.926;11.376;2022-07-01T13:05:35;2.47;;;2.17;;
19195;SDS011;9730;48.926;11.376;2022-07-01T13:10:32;1.38;;;1.17;;
19195;SDS011;9730;48.926;11.376;2022-07-01T13:12:59;5.07;;;1.42;;
19195;SDS011;9730;48.926;11.376;2022-07-01T13:15:25;1.70;;;1.50;;
19195;SDS011;9730;48.926;11.376;2022-07-01T13:17:52;1.25;;;1.15;;
19195;SDS011;9730;48.926;11.376;2022-07-01T13:20:18;1.33;;;1.23;;
19195;SDS011;9730;48.926;11.376;2022-07-01T13:22:45;2.45;;;1.70;;
19195;SDS011;9730;48.926;11.376;2022-07-01T13:25:14;6.57;;;2.05;;
19195;SDS011;9730;48.926;11.376;2022-07-01T13:27:41;2.13;;;1.70;;
19195;SDS011;9730;48.926;11.376;2022-07-01T13:30:08;1.85;;;1.42;;
19195;SDS011;9730;48.926;11.376;2022-07-01T13:32:35;2.03;;;1.60;;
19195;SDS011;9730;48.926;11.376;2022-07-01T13:35:04;6.13;;;2.70;;
19195;SDS011;9730;48.926;11.376;2022-07-01T13:37:32;2.50;;;2.28;;
19195;SDS011;9730;48.926;11.376;2022-07-01T13:39:58;4.65;;;2.55;;
19195;SDS011;9730;48.926;11.376;2022-07-01T13:42:26;4.60;;;2.03;;
19195;SDS011;9730;48.926;11.376;2022-07-01T13:44:53;3.28;;;2.20;;
19195;SDS011;9730;48.926;11.376;2022-07-01T13:47:19;2.25;;;2.05;;
19195;SDS011;9730;48.926;11.376;2022-07-01T13:49:47;5.03;;;2.22;;
19195;SDS011;9730;48.926;11.376;2022-07-01T13:52:13;2.45;;;2.20;;
19195;SDS011;9730;48.926;11.376;2022-07-01T13:54:40;4.95;;;2.30;;
19195;SDS011;9730;48.926;11.376;2022-07-01T13:57:07;3.55;;;2.53;;
19195;SDS011;9730;48.926;11.376;2022-07-01T13:59:35;3.30;;;2.67;;
19195;SDS011;9730;48.926;11.376;2022-07-01T14:02:02;6.60;;;3.10;;
19195;SDS011;9730;48.926;11.376;2022-07-01T14:04:30;2.20;;;1.97;;
19195;SDS011;9730;48.926;11.376;2022-07-01T14:06:57;5.50;;;2.75;;
19195;SDS011;9730;48.926;11.376;2022-07-01T14:09:23;3.53;;;2.30;;
19195;SDS011;9730;48.926;11.376;2022-07-01T14:11:50;2.95;;;2.65;;
19195;SDS011;9730;48.926;11.376;2022-07-01T14:14:16;3.38;;;2.72;;
19195;SDS011;9730;48.926;11.376;2022-07-01T14:16:44;2.58;;;2.17;;
19195;SDS011;9730;48.926;11.376;2022-07-01T14:19:11;2.38;;;2.17;;
19195;SDS011;9730;48.926;11.376;2022-07-01T14:21:37;4.30;;;2.63;;
19195;SDS011;9730;48.926;11.376;2022-07-01T14:24:04;2.58;;;2.05;;
19195;SDS011;9730;48.926;11.376;2022-07-01T14:26:31;3.42;;;2.75;;
19195;SDS011;9730;48.926;11.376;2022-07-01T14:28:58;2.53;;;2.05;;
19195;SDS011;9730;48.926;11.376;2022-07-01T14:31:24;2.70;;;2.33;;
19195;SDS011;9730;48.926;11.376;2022-07-01T14:33:52;2.22;;;2.03;;
19195;SDS011;9730;48.926;11.376;2022-07-01T14:36:19;2.50;;;2.30;;
19195;SDS011;9730;48.926;11.376;2022-07-01T14:38:45;9.80;;;3.13;;
19195;SDS011;9730;48.926;11.376;2022-07-01T14:41:12;3.20;;;2.40;;
19195;SDS011;9730;48.926;11.376;2022-07-01T14:43:38;2.88;;;2.20;;
19195;SDS011;9730;48.926;11.376;2022-07-01T14:46:05;2.85;;;2.00;;
19195;SDS011;9730;48.926;11.376;2022-07-01T14:51:02;4.22;;;2.20;;
19195;SDS011;9730;48.926;11.376;2022-07-01T14:53:28;6.57;;;2.70;;
19195;SDS011;9730;48.926;11.376;2022-07-01T14:55:55;3.20;;;2.42;;
19195;SDS011;9730;48.926;11.376;2022-07-01T14:58:22;3.00;;;2.28;;
19195;SDS011;9730;48.926;11.376;2022-07-01T15:00:48;4.75;;;2.22;;
19195;SDS011;9730;48.926;11.376;2022-07-01T15:03:15;4.55;;;2.58;;
19195;SDS011;9730;48.926;11.376;2022-07-01T15:05:42;3.13;;;2.20;;
19195;SDS011;9730;48.926;11.376;2022-07-01T15:08:09;3.55;;;1.90;;
19195;SDS011;9730;48.926;11.376;2022-07-01T15:10:37;2.40;;;1.95;;
19195;SDS011;9730;48.926;11.376;2022-07-01T15:13:04;3.13;;;2.30;;
19195;SDS011;9730;48.926;11.376;2022-07-01T15:15:30;2.33;;;2.08;;
19195;SDS011;9730;48.926;11.376;2022-07-01T15:17:57;2.47;;;2.00;;
19195;SDS011;9730;48.926;11.376;2022-07-01T15:20:23;2.72;;;2.20;;
19195;SDS011;9730;48.926;11.376;2022-07-01T15:22:50;1.95;;;1.77;;